Tiffin, OH (44883)

10:56 PM EST on February 22, 2017 (GMT -0500)
SR18 @ Johnson/Greeley St | | Change Station

Elev 732 ft 41.12 °N, 83.17 °W | Updated 59 seconds ago

Overcast
Overcast
56.4 °F
Feels Like 56.4 °F
N
2.3
Wind Variable Wind from SSE
Gusts 2.3 mph

Today
High -- | Low -- °F
--% Chance of Precip.
Yesterday
High -- | Low -- °F
Precip. -- in
Pressure 29.75 in
Visibility 7.0 miles
Clouds Overcast 3800 ft
Dew Point 54 °F
Humidity 93%
Rainfall 0.00 in
Snow Depth Not available.
7:17 AM 6:15 PM
Waning Crescent, 13% visible
METAR KFDY 230253Z AUTO 17008KT 7SM OVC038 15/12 A2976 RMK AO2 SLP073 T01500117 58001
Pressure 29.75 in
Visibility 7.0 miles
Clouds Overcast 3800 ft
Dew Point 54 °F
Humidity 93%
Rainfall 0.00 in
Snow Depth Not available.
7:17 AM 6:15 PM
Waning Crescent, 13% visible
METAR KFDY 230253Z AUTO 17008KT 7SM OVC038 15/12 A2976 RMK AO2 SLP073 T01500117 58001

Get Your Daily Forecast Email!

Thanks for signing up!

Be on the lookout for a verification email in your inbox.

You'll start receiving the daily forecast at 8 AM.

×

10-Day Weather Forecast

Almanac

Astronomy

Feb. 22, 2017 Rise Set
Actual Time
Civil Twilight
Nautical Twilight
Astronomical Twilight
Moon
Length of Visible Light
Length of Day
Tomorrow will be .
, % of the Moon is Illuminated

Today's Extremes

State Highs State Lows

Community

WunderPhotos

Upload Photos

1,962,540 photos uploaded!

WunderBlog® & News

Nearby

Air Quality

  Air Quality AQ Index Pollutant
Not available.

Snow Depth

Station Depth Elevation

Earthquake Activity

City Distance Mag. Time & Date
Minimum magnitude displayed is 2.5.

Coastal Water Temperatures

Place Temperature

Stations

Nearby Weather Stations

Station Location Temp. Windchill Dew Point Humidity Wind Precip. Elev Updated Type
                   

Watches & Warnings

There are currently no watches in effect.